Terminal Aerodrome Forecast
Issued by NWS

Home | Current Version | Previous Version | Text Only | Print | Product List | Glossary On
Versions: 1 2 3 4 5 6 7 8 9 10 11 12 13
000
FTUS41 KLWX 241138
TAFMTN
TAF
KMTN 241138Z 2412/2512 17008KT P6SM BKN150
     FM241800 15011G20KT P6SM BKN070
     FM250000 19007KT P6SM BKN250
     FM250200 21006KT P6SM BKN250 WS020/24035KT
     FM250800 VRB03KT P6SM BKN250=

USA.gov is the U.S. government's official web portal to all federal, state and local government web resources and services.